Airfield :
LOGIN :

Register | Disclaimer

   EN    FR    IT 

 










Legend :    VFR   Marginal VFR   IFR   Intensive IFR   Very Intensive IFR
Visi :
Ceiling :
>= 8 km
>= 3000ft
5 to 8 km
1000 to 3000 ft
1500m to 5 km
500 to 1000 ft
800 to 1500m
200 to 500 ft
< 800m
< 200 ft
Symbols :   Thunderstorms  Fog  Heavy snow  Heavy precipitations  Wind > 20 kt
SIGMETs :     Misc.  Thunderstorms  Icing  Turbulence  Mountain Waves  Volcanic Ashes






- Airport Elevation : 1090 ft
- IATA code : CFE


LFLC - Clermont-Ferrand Auvergne

CURRENT METAR :
  • 310030Z AUTO 17013KT CAVOK 08/05 Q1024 BECMG VRB03KT

EXPIRED METARs :
  • 310000Z AUTO 18006KT CAVOK 09/06 Q1024 NOSIG
  • 302330Z AUTO 18011KT CAVOK 10/07 Q1025 TEMPO 0600 FG VV///
  • 302300Z AUTO 17009KT CAVOK 10/07 Q1025 NOSIG
  • 302230Z AUTO VRB02KT CAVOK 09/06 Q1025 NOSIG
  • 302200Z AUTO 00000KT CAVOK 09/07 Q1025 NOSIG

TAF TAF LFLC
Valid from the 31 at 00:00 until the 01 at 00:00 UTC


302300Z 3100/3124 VRB03KT CAVOK
TEMPO 3103/3108 1500 MIFG
PROB30
TEMPO 3103/3108 0500 FG VV///
BECMG 3108/3110 18010KT
TEMPO 3113/3117 25010KT
ATIS : +33 4 73 62 74 38



MET'MAP, your aeronautical weather chart ! - Copyright ORBIFLY December 2007 - Disclaimer

ORBIFLY MET'MAP TEAM :

Programming & Development : Alexandra Zaïnal
Concept & original design : Baudouin d'Aumeries
Assistance for programming : Marc-Olivier Méhu
Technical & hardware support : Manuel Goepfert

Contact : metmap@orbifly.com




SOURCES & CREDITS :

   NOAA